createdAt,value
2018-07-27T00:00:59.776Z,60.53
2018-07-27T00:03:27.345Z,60.83
2018-07-27T00:05:55.015Z,60.55
2018-07-27T00:08:22.979Z,60.40
2018-07-27T00:10:50.643Z,60.77
2018-07-27T00:13:18.307Z,60.80
2018-07-27T00:15:46.130Z,60.80
2018-07-27T00:18:13.806Z,60.76
2018-07-27T00:20:41.421Z,60.53
2018-07-27T00:23:09.528Z,60.97
2018-07-27T00:25:37.147Z,60.99
2018-07-27T00:28:04.884Z,60.90
2018-07-27T00:30:32.823Z,60.61
2018-07-27T00:33:00.599Z,60.74
2018-07-27T00:35:28.281Z,60.82
2018-07-27T00:37:56.102Z,60.69
2018-07-27T00:40:23.727Z,60.71
2018-07-27T00:42:51.329Z,60.86
2018-07-27T00:45:19.167Z,61.13
2018-07-27T00:47:46.744Z,60.79
2018-07-27T00:50:14.367Z,60.78
2018-07-27T00:52:42.271Z,61.34
2018-07-27T00:55:09.856Z,60.88
2018-07-27T00:57:37.396Z,61.45
2018-07-27T01:00:05.505Z,61.17
2018-07-27T01:02:33.137Z,61.53
2018-07-27T01:05:00.726Z,61.01
2018-07-27T01:07:28.456Z,61.05
2018-07-27T01:09:56.111Z,61.16
2018-07-27T01:12:23.745Z,61.50
2018-07-27T01:14:51.525Z,61.68
2018-07-27T01:17:19.091Z,61.68
2018-07-27T01:19:46.751Z,61.65
2018-07-27T01:22:14.555Z,61.44
2018-07-27T01:24:42.114Z,61.87
2018-07-27T01:27:09.798Z,61.78
2018-07-27T01:29:37.657Z,61.49
2018-07-27T01:32:05.293Z,61.59
2018-07-27T01:34:34.106Z,61.47
2018-07-27T01:37:02.042Z,61.75
2018-07-27T01:39:29.682Z,61.96
2018-07-27T01:41:57.341Z,61.61
2018-07-27T01:44:25.237Z,61.78
2018-07-27T01:46:52.896Z,62.16
2018-07-27T01:49:20.578Z,62.01
2018-07-27T01:51:48.382Z,61.75
2018-07-27T01:54:16.158Z,61.99
2018-07-27T01:56:43.760Z,62.41
2018-07-27T01:59:11.753Z,62.29
2018-07-27T02:01:39.430Z,62.36
2018-07-27T02:04:07.033Z,62.32
2018-07-27T02:06:34.822Z,62.13
2018-07-27T02:09:02.750Z,62.42
2018-07-27T02:11:30.395Z,62.11
2018-07-27T02:13:58.120Z,62.46
2018-07-27T02:16:25.805Z,62.43
2018-07-27T02:18:53.542Z,62.33
2018-07-27T02:21:21.454Z,62.25
2018-07-27T02:23:49.004Z,62.29
2018-07-27T02:26:16.669Z,62.40
2018-07-27T02:28:44.403Z,62.27
2018-07-27T02:31:12.042Z,62.58
2018-07-27T02:33:39.783Z,62.92
2018-07-27T02:36:07.803Z,62.77
2018-07-27T02:38:35.434Z,62.54
2018-07-27T02:41:03.094Z,62.89
2018-07-27T02:43:31.010Z,62.58
2018-07-27T02:45:58.606Z,63.08
2018-07-27T02:48:26.248Z,62.68
2018-07-27T02:50:54.080Z,63.08
2018-07-27T02:53:21.687Z,62.71
2018-07-27T02:55:49.380Z,62.74
2018-07-27T02:58:17.114Z,62.63
2018-07-27T03:00:44.754Z,63.15
2018-07-27T03:03:12.447Z,63.40
2018-07-27T03:05:40.286Z,62.96
2018-07-27T03:08:07.911Z,62.95
2018-07-27T03:10:35.514Z,63.05
2018-07-27T03:13:09.924Z,63.30
2018-07-27T03:15:37.579Z,63.46
2018-07-27T03:18:05.275Z,63.57
2018-07-27T03:20:33.186Z,63.01
2018-07-27T03:23:00.859Z,63.02
2018-07-27T03:25:28.552Z,63.49
2018-07-27T03:27:56.203Z,63.39
2018-07-27T03:30:23.829Z,63.31
2018-07-27T03:32:51.450Z,63.01
2018-07-27T03:35:19.280Z,63.58
2018-07-27T03:37:47.072Z,63.13
2018-07-27T03:40:14.688Z,63.57
2018-07-27T03:42:42.573Z,63.24
2018-07-27T03:45:10.294Z,63.48
2018-07-27T03:47:37.916Z,63.26
2018-07-27T03:50:05.858Z,63.53
2018-07-27T03:52:33.493Z,63.11
2018-07-27T03:55:01.053Z,63.48
2018-07-27T03:57:28.832Z,63.67
2018-07-27T03:59:56.414Z,63.55
2018-07-27T04:02:24.192Z,63.31
2018-07-27T04:04:51.875Z,63.64
2018-07-27T04:07:19.435Z,63.78
2018-07-27T04:09:47.135Z,63.76
2018-07-27T04:12:14.938Z,63.24
2018-07-27T04:14:42.524Z,63.57
2018-07-27T04:17:10.182Z,63.34
2018-07-27T04:19:37.975Z,63.26
2018-07-27T04:22:05.589Z,63.50
2018-07-27T04:24:33.156Z,63.36
2018-07-27T04:27:00.935Z,63.36
2018-07-27T04:29:28.592Z,63.38
2018-07-27T04:31:56.187Z,63.81
2018-07-27T04:34:24.042Z,64.05
2018-07-27T04:36:51.629Z,63.74
2018-07-27T04:39:19.568Z,62.95
2018-07-27T04:41:47.426Z,63.87
2018-07-27T04:44:15.063Z,64.06
2018-07-27T04:46:42.649Z,63.73
2018-07-27T04:49:10.491Z,63.47
2018-07-27T04:51:38.083Z,63.92
2018-07-27T04:54:05.837Z,63.93
2018-07-27T04:56:33.725Z,63.76
2018-07-27T04:59:01.526Z,63.37
2018-07-27T05:01:29.184Z,63.41
2018-07-27T05:03:57.346Z,63.84
2018-07-27T05:06:25.054Z,63.44
2018-07-27T05:08:58.200Z,63.65
2018-07-27T05:11:26.109Z,64.09
2018-07-27T05:13:53.710Z,63.30
2018-07-27T05:16:21.347Z,63.30
2018-07-27T05:18:49.224Z,63.39
2018-07-27T05:21:16.790Z,63.18
2018-07-27T05:23:44.361Z,63.36
2018-07-27T05:26:12.091Z,62.78
2018-07-27T05:28:39.737Z,62.71
2018-07-27T05:31:07.345Z,62.51
2018-07-27T05:33:35.227Z,62.55
2018-07-27T05:36:02.885Z,61.61
2018-07-27T05:38:30.528Z,62.13
2018-07-27T05:40:58.727Z,61.77
2018-07-27T05:43:26.353Z,61.36
2018-07-27T05:45:53.969Z,60.56
2018-07-27T05:48:21.784Z,60.23
2018-07-27T05:50:49.420Z,60.48
2018-07-27T05:53:17.095Z,60.08
2018-07-27T05:55:44.830Z,60.27
2018-07-27T05:58:12.409Z,59.86
2018-07-27T06:00:40.060Z,58.95
2018-07-27T06:03:07.954Z,58.69
2018-07-27T06:05:35.600Z,58.54
2018-07-27T06:08:03.297Z,58.10
2018-07-27T06:10:31.102Z,58.12
2018-07-27T06:15:25.749Z,57.29
2018-07-27T06:17:53.536Z,57.59
2018-07-27T06:20:21.200Z,57.27
2018-07-27T06:22:48.849Z,56.95
2018-07-27T06:25:19.494Z,55.94
2018-07-27T06:27:47.165Z,55.71
2018-07-27T06:30:14.774Z,55.53
2018-07-27T06:32:42.632Z,55.97
2018-07-27T06:35:10.289Z,55.28
2018-07-27T06:37:38.079Z,55.21
2018-07-27T06:40:06.132Z,55.21
2018-07-27T06:42:33.915Z,55.52
2018-07-27T06:45:01.587Z,55.00
2018-07-27T06:47:29.355Z,54.84
2018-07-27T06:49:57.005Z,54.40
2018-07-27T06:52:24.731Z,54.28
2018-07-27T06:54:52.807Z,54.11
2018-07-27T06:57:20.405Z,53.79
2018-07-27T06:59:48.057Z,53.70
2018-07-27T07:02:15.763Z,53.49
2018-07-27T07:04:43.395Z,53.56
2018-07-27T07:07:11.024Z,53.39
2018-07-27T07:09:38.843Z,53.41
2018-07-27T07:12:06.563Z,53.20
2018-07-27T07:14:34.240Z,52.94
2018-07-27T07:17:02.049Z,52.80
2018-07-27T07:19:29.759Z,53.05
2018-07-27T07:21:57.440Z,52.92
2018-07-27T07:24:25.172Z,53.04
2018-07-27T07:26:53.107Z,52.21
2018-07-27T07:29:20.693Z,52.23
2018-07-27T07:31:48.486Z,52.68
2018-07-27T07:34:16.154Z,51.99
2018-07-27T07:36:43.905Z,52.28
2018-07-27T07:39:12.519Z,52.25
2018-07-27T07:41:40.813Z,52.16
2018-07-27T07:44:09.094Z,51.99
2018-07-27T07:46:37.291Z,51.87
2018-07-27T07:49:06.049Z,51.83
2018-07-27T07:51:34.913Z,51.70
2018-07-27T07:54:02.739Z,51.45
2018-07-27T07:56:30.807Z,51.08
2018-07-27T07:58:58.435Z,51.02
2018-07-27T08:01:26.167Z,51.24
2018-07-27T08:03:53.843Z,50.89
2018-07-27T08:06:21.556Z,50.85
2018-07-27T08:08:49.316Z,51.26
2018-07-27T08:11:16.979Z,51.00
2018-07-27T08:13:44.562Z,50.99
2018-07-27T08:16:12.483Z,51.00
2018-07-27T08:18:40.084Z,50.53
2018-07-27T08:21:07.829Z,50.31
2018-07-27T08:23:42.419Z,49.96
2018-07-27T08:26:32.055Z,50.08
2018-07-27T08:28:59.925Z,49.70
2018-07-27T08:31:27.523Z,49.07
2018-07-27T08:33:55.964Z,48.56
2018-07-27T08:36:23.787Z,48.99
2018-07-27T08:38:51.414Z,48.53
2018-07-27T08:41:19.082Z,48.52
2018-07-27T08:43:46.946Z,48.90
2018-07-27T08:46:15.035Z,48.55
2018-07-27T08:48:42.659Z,48.42
2018-07-27T08:51:10.369Z,47.59
2018-07-27T08:53:38.147Z,47.52
2018-07-27T08:56:06.998Z,47.26
2018-07-27T08:58:35.027Z,46.80
2018-07-27T09:01:02.911Z,46.55
2018-07-27T09:03:30.611Z,46.25
2018-07-27T09:05:58.453Z,46.36
2018-07-27T09:08:26.234Z,45.86
2018-07-27T09:10:53.912Z,45.57
2018-07-27T09:13:21.689Z,45.08
2018-07-27T09:15:49.564Z,44.56
2018-07-27T09:18:17.296Z,44.11
2018-07-27T09:20:45.141Z,44.22
2018-07-27T09:24:15.874Z,43.13
2018-07-27T09:26:43.654Z,43.52
2018-07-27T09:29:11.227Z,42.59
2018-07-27T09:31:38.981Z,42.70
2018-07-27T09:34:06.715Z,42.64
2018-07-27T09:36:34.377Z,41.88
2018-07-27T09:39:02.230Z,41.74
2018-07-27T09:41:29.936Z,41.24
2018-07-27T09:43:57.545Z,41.85
2018-07-27T09:46:25.500Z,41.51
2018-07-27T09:48:54.067Z,41.53
2018-07-27T09:51:22.919Z,40.85
2018-07-27T09:53:50.897Z,41.11
2018-07-27T09:56:18.693Z,40.15
2018-07-27T09:58:46.327Z,40.07
2018-07-27T10:01:19.771Z,39.27
2018-07-27T10:03:47.453Z,38.52
2018-07-27T10:06:15.122Z,38.47
2018-07-27T10:08:42.856Z,37.91
2018-07-27T10:11:10.668Z,37.70
2018-07-27T10:13:38.308Z,37.16
2018-07-27T10:16:06.574Z,36.13
2018-07-27T10:18:34.411Z,36.05
2018-07-27T10:21:02.062Z,35.19
2018-07-27T10:23:30.028Z,34.83
2018-07-27T10:25:57.928Z,34.40
2018-07-27T10:28:25.538Z,34.31
2018-07-27T10:30:53.236Z,34.15
2018-07-27T10:33:20.973Z,32.91
2018-07-27T10:35:48.580Z,33.32
2018-07-27T10:38:16.426Z,32.51
2018-07-27T10:40:44.206Z,32.75
2018-07-27T10:43:11.809Z,31.71
2018-07-27T10:45:39.591Z,32.14
2018-07-27T10:48:07.397Z,31.08
2018-07-27T10:50:35.120Z,31.43
2018-07-27T10:53:02.795Z,31.04
2018-07-27T10:55:30.522Z,31.68
2018-07-27T10:57:58.110Z,31.06
2018-07-27T11:00:25.889Z,31.11
2018-07-27T11:02:53.666Z,30.37
2018-07-27T11:05:21.247Z,30.29
2018-07-27T11:07:49.013Z,30.75
2018-07-27T11:10:16.929Z,30.47
2018-07-27T11:12:44.656Z,30.32
2018-07-27T11:15:12.484Z,30.15
2018-07-27T11:17:40.346Z,30.11
2018-07-27T11:20:08.496Z,30.29
2018-07-27T11:22:36.348Z,29.25
2018-07-27T11:25:04.373Z,29.00
2018-07-27T11:27:31.994Z,29.52
2018-07-27T11:29:59.778Z,29.17
2018-07-27T11:32:27.458Z,28.65
2018-07-27T11:34:55.042Z,28.34
2018-07-27T11:37:22.952Z,28.85
2018-07-27T11:39:50.676Z,28.90
2018-07-27T11:42:18.388Z,28.40
2018-07-27T11:44:46.068Z,27.50
2018-07-27T11:47:13.903Z,27.81
2018-07-27T11:49:41.564Z,28.01
2018-07-27T11:52:09.346Z,27.08
2018-07-27T11:54:37.030Z,27.70
2018-07-27T11:57:04.879Z,27.70
2018-07-27T11:59:32.802Z,26.90
2018-07-27T12:02:00.628Z,26.96
2018-07-27T12:04:28.176Z,26.23
2018-07-27T12:06:55.973Z,27.21
2018-07-27T12:09:23.837Z,26.98
2018-07-27T12:11:51.431Z,26.92
2018-07-27T12:14:19.329Z,26.35
2018-07-27T12:16:47.080Z,26.75
2018-07-27T12:19:14.682Z,26.82
2018-07-27T12:21:42.670Z,26.27
2018-07-27T12:24:10.420Z,26.29
2018-07-27T12:26:37.983Z,25.86
2018-07-27T12:29:05.637Z,26.18
2018-07-27T12:31:33.504Z,26.33
2018-07-27T12:34:01.116Z,26.05
2018-07-27T12:36:28.962Z,26.27
2018-07-27T12:38:56.799Z,26.19
2018-07-27T12:41:24.395Z,25.63
2018-07-27T12:43:52.295Z,26.25
2018-07-27T12:46:20.253Z,25.84
2018-07-27T12:48:47.910Z,26.01
2018-07-27T12:51:15.695Z,26.16
2018-07-27T12:53:43.476Z,25.76
2018-07-27T12:56:11.098Z,25.52
2018-07-27T12:58:38.885Z,26.26
2018-07-27T13:01:06.926Z,26.41
2018-07-27T13:03:34.526Z,26.48
2018-07-27T13:06:02.296Z,26.23
2018-07-27T13:08:30.144Z,26.76
2018-07-27T13:10:57.765Z,26.69
2018-07-27T13:13:25.530Z,26.80
2018-07-27T13:15:53.312Z,27.16
2018-07-27T13:18:20.906Z,26.84
2018-07-27T13:20:51.462Z,26.72
2018-07-27T13:23:19.940Z,27.01
2018-07-27T13:26:25.406Z,27.21
2018-07-27T13:28:46.341Z,28.33
2018-07-27T13:31:13.982Z,28.01
2018-07-27T13:34:00.766Z,27.17
2018-07-27T13:36:28.417Z,27.80
2018-07-27T13:38:56.076Z,27.67
2018-07-27T13:41:24.117Z,28.39
2018-07-27T13:43:51.875Z,27.97
2018-07-27T13:46:19.477Z,28.16
2018-07-27T13:48:47.460Z,28.03
2018-07-27T13:51:15.084Z,28.20
2018-07-27T13:53:42.680Z,28.72
2018-07-27T13:56:10.497Z,28.48
2018-07-27T13:58:38.073Z,29.15
2018-07-27T14:01:05.738Z,28.85
2018-07-27T14:03:33.559Z,29.36
2018-07-27T14:06:01.164Z,29.57
2018-07-27T14:08:28.766Z,29.66
2018-07-27T14:10:56.499Z,29.15
2018-07-27T14:13:24.152Z,29.43
2018-07-27T14:15:51.786Z,29.81
2018-07-27T14:18:19.698Z,29.40
2018-07-27T14:20:47.296Z,29.61
2018-07-27T14:23:14.874Z,30.01
2018-07-27T14:25:43.137Z,30.31
2018-07-27T14:28:11.009Z,30.75
2018-07-27T14:30:39.180Z,30.86
2018-07-27T14:33:07.697Z,30.77
2018-07-27T14:35:35.415Z,30.16
2018-07-27T14:38:03.187Z,30.51
2018-07-27T14:40:31.242Z,31.24
2018-07-27T14:42:58.878Z,30.78
2018-07-27T14:45:26.931Z,31.00
2018-07-27T14:47:54.867Z,31.53
2018-07-27T14:50:22.530Z,31.09
2018-07-27T14:53:21.077Z,32.00
2018-07-27T14:55:48.725Z,32.04
2018-07-27T14:58:16.349Z,32.02
2018-07-27T15:00:44.245Z,32.00
2018-07-27T15:03:11.858Z,32.00
2018-07-27T15:05:39.481Z,32.26
2018-07-27T15:08:07.351Z,32.19
2018-07-27T15:10:35.045Z,32.64
2018-07-27T15:13:02.681Z,32.23
2018-07-27T15:15:30.571Z,32.65
2018-07-27T15:17:58.198Z,32.48
2018-07-27T15:20:25.844Z,31.81
2018-07-27T15:22:53.891Z,32.27
2018-07-27T15:25:21.512Z,31.71
2018-07-27T15:27:49.158Z,32.21
2018-07-27T15:30:17.122Z,31.62
2018-07-27T15:32:44.712Z,32.23
2018-07-27T15:35:12.359Z,32.29
2018-07-27T15:37:40.418Z,31.99
2018-07-27T15:40:08.073Z,31.79
2018-07-27T15:42:35.670Z,31.88
2018-07-27T15:45:03.580Z,32.21
2018-07-27T15:47:31.167Z,31.69
2018-07-27T15:49:58.847Z,31.35
2018-07-27T15:52:26.834Z,31.80
2018-07-27T15:54:54.438Z,31.40
2018-07-27T15:57:22.056Z,31.62
2018-07-27T15:59:49.942Z,31.27
2018-07-27T16:02:17.536Z,31.62
2018-07-27T16:04:45.150Z,31.33
2018-07-27T16:07:12.960Z,31.40
2018-07-27T16:09:40.562Z,31.43
2018-07-27T16:12:08.174Z,31.16
2018-07-27T16:14:36.289Z,31.22
2018-07-27T16:17:03.918Z,31.75
2018-07-27T16:22:30.612Z,31.78
2018-07-27T16:24:58.216Z,32.18
2018-07-27T16:27:25.885Z,32.26
2018-07-27T16:29:53.799Z,32.44
2018-07-27T16:32:21.384Z,32.22
2018-07-27T16:34:49.203Z,32.33
2018-07-27T16:37:16.962Z,32.54
2018-07-27T16:39:44.587Z,32.63
2018-07-27T16:42:12.358Z,32.71
2018-07-27T16:44:40.254Z,32.26
2018-07-27T16:47:07.877Z,32.90
2018-07-27T16:49:35.619Z,32.28
2018-07-27T16:52:03.437Z,32.64
2018-07-27T16:54:31.001Z,32.88
2018-07-27T16:56:58.802Z,33.01
2018-07-27T16:59:26.473Z,32.52
2018-07-27T17:01:54.077Z,33.23
2018-07-27T17:04:21.841Z,33.09
2018-07-27T17:06:49.527Z,32.59
2018-07-27T17:09:17.167Z,32.62
2018-07-27T17:11:44.964Z,32.88
2018-07-27T17:14:12.933Z,32.51
2018-07-27T17:16:40.570Z,33.18
2018-07-27T17:19:08.337Z,33.12
2018-07-27T17:21:36.255Z,33.21
2018-07-27T17:24:04.058Z,32.94
2018-07-27T17:26:31.821Z,32.89
2018-07-27T17:28:59.686Z,32.85
2018-07-27T17:31:27.295Z,32.82
2018-07-27T17:33:55.038Z,32.73
2018-07-27T17:36:22.767Z,32.84
2018-07-27T17:38:50.508Z,32.86
2018-07-27T17:41:18.273Z,32.91
2018-07-27T17:43:46.102Z,32.84
2018-07-27T17:46:13.756Z,32.63
2018-07-27T17:48:41.434Z,32.77
2018-07-27T17:51:09.250Z,32.89
2018-07-27T17:53:36.909Z,33.01
2018-07-27T17:56:04.910Z,33.14
2018-07-27T17:58:32.665Z,33.15
2018-07-27T18:01:00.376Z,32.70
2018-07-27T18:03:28.181Z,33.20
2018-07-27T18:05:55.842Z,32.81
2018-07-27T18:08:23.447Z,32.81
2018-07-27T18:10:51.214Z,33.04
2018-07-27T18:13:19.125Z,33.14
2018-07-27T18:15:46.921Z,33.08
2018-07-27T18:18:14.701Z,33.79
2018-07-27T18:20:42.770Z,33.26
2018-07-27T18:23:10.385Z,33.99
2018-07-27T18:28:20.432Z,34.04
2018-07-27T18:30:48.075Z,33.68
2018-07-27T18:33:15.757Z,34.27
2018-07-27T18:35:43.556Z,33.84
2018-07-27T18:38:11.165Z,34.38
2018-07-27T18:40:38.934Z,34.05
2018-07-27T18:43:06.824Z,34.05
2018-07-27T18:45:34.433Z,34.61
2018-07-27T18:48:02.186Z,34.31
2018-07-27T18:50:30.066Z,34.18
2018-07-27T18:52:57.722Z,34.20
2018-07-27T18:55:25.626Z,34.37
2018-07-27T18:57:53.540Z,34.77
2018-07-27T19:00:21.182Z,34.99
2018-07-27T19:02:49.063Z,34.92
2018-07-27T19:05:16.914Z,35.03
2018-07-27T19:07:44.485Z,34.54
2018-07-27T19:10:12.296Z,35.02
2018-07-27T19:12:39.958Z,35.28
2018-07-27T19:15:08.188Z,35.42
2018-07-27T19:17:36.043Z,35.55
2018-07-27T19:20:04.117Z,35.52
2018-07-27T19:22:31.710Z,35.22
2018-07-27T19:24:59.540Z,35.87
2018-07-27T19:27:27.222Z,35.90
2018-07-27T19:29:54.830Z,35.56
2018-07-27T19:32:22.870Z,36.21
2018-07-27T19:34:50.519Z,35.70
2018-07-27T19:37:18.193Z,35.89
2018-07-27T19:39:46.112Z,35.93
2018-07-27T19:42:13.920Z,36.16
2018-07-27T19:44:41.573Z,36.54
2018-07-27T19:47:09.902Z,36.77
2018-07-27T19:49:37.680Z,36.56
2018-07-27T19:52:05.332Z,36.31
2018-07-27T19:54:33.191Z,36.48
2018-07-27T19:57:01.103Z,37.02
2018-07-27T19:59:28.728Z,36.72
2018-07-27T20:01:56.531Z,37.16
2018-07-27T20:04:24.308Z,37.29
2018-07-27T20:06:51.976Z,37.50
2018-07-27T20:09:19.874Z,37.49
2018-07-27T20:11:47.782Z,37.40
2018-07-27T20:14:15.424Z,37.31
2018-07-27T20:16:44.159Z,37.67
2018-07-27T20:19:11.891Z,37.98
2018-07-27T20:21:39.635Z,37.59
2018-07-27T20:24:07.461Z,37.57
2018-07-27T20:26:35.273Z,38.43
2018-07-27T20:29:02.929Z,37.92
2018-07-27T20:31:30.793Z,38.61
2018-07-27T20:33:58.405Z,38.63
2018-07-27T20:36:26.320Z,38.65
2018-07-27T20:38:54.079Z,38.48
2018-07-27T20:41:21.672Z,38.45
2018-07-27T20:43:49.309Z,38.98
2018-07-27T20:46:17.512Z,39.17
2018-07-27T20:48:45.240Z,39.54
2018-07-27T20:51:12.817Z,39.24
2018-07-27T20:53:40.730Z,39.30
2018-07-27T20:56:23.537Z,39.99
2018-07-27T20:58:51.468Z,40.71
2018-07-27T21:01:19.215Z,40.23
2018-07-27T21:03:46.836Z,40.73
2018-07-27T21:06:14.650Z,40.42
2018-07-27T21:08:42.301Z,40.63
2018-07-27T21:11:09.992Z,40.49
2018-07-27T21:13:37.895Z,40.89
2018-07-27T21:16:05.546Z,41.43
2018-07-27T21:18:33.284Z,41.79
2018-07-27T21:21:01.116Z,41.63
2018-07-27T21:23:28.693Z,42.02
2018-07-27T21:25:56.450Z,42.25
2018-07-27T21:28:24.363Z,42.42
2018-07-27T21:30:51.969Z,42.20
2018-07-27T21:33:19.583Z,42.67
2018-07-27T21:35:47.580Z,43.19
2018-07-27T21:38:15.171Z,43.46
2018-07-27T21:40:42.758Z,43.06
2018-07-27T21:43:25.152Z,43.62
2018-07-27T21:45:52.895Z,43.62
2018-07-27T21:48:20.512Z,44.23
2018-07-27T21:50:48.617Z,44.03
2018-07-27T21:53:16.250Z,44.68
2018-07-27T21:55:43.271Z,44.46
2018-07-27T21:58:11.209Z,44.70
2018-07-27T22:00:38.311Z,45.20
2018-07-27T22:03:05.893Z,45.34
2018-07-27T22:05:33.384Z,45.03
2018-07-27T22:08:00.356Z,45.38
2018-07-27T22:10:27.345Z,46.00
2018-07-27T22:12:55.388Z,45.91
2018-07-27T22:15:23.666Z,46.22
2018-07-27T22:17:50.813Z,46.44
2018-07-27T22:20:18.907Z,46.40
2018-07-27T22:22:47.218Z,46.28
2018-07-27T22:25:14.946Z,46.96
2018-07-27T22:27:43.322Z,46.75
2018-07-27T22:30:11.257Z,47.20
2018-07-27T22:32:38.266Z,46.98
2018-07-27T22:35:05.766Z,46.97
2018-07-27T22:37:32.761Z,47.38
2018-07-27T22:39:59.737Z,47.78
2018-07-27T22:42:27.117Z,47.83
2018-07-27T22:44:54.081Z,48.08
2018-07-27T22:47:21.237Z,47.87
2018-07-27T22:49:48.631Z,48.31
2018-07-27T22:52:15.661Z,48.38
2018-07-27T22:54:42.682Z,48.05
2018-07-27T22:57:09.977Z,48.38
2018-07-27T22:59:37.025Z,48.77
2018-07-27T23:02:04.033Z,48.94
2018-07-27T23:04:31.359Z,49.10
2018-07-27T23:06:58.369Z,48.70
2018-07-27T23:09:25.353Z,49.48
2018-07-27T23:11:52.844Z,49.40
2018-07-27T23:14:19.886Z,49.48
2018-07-27T23:16:46.891Z,50.07
2018-07-27T23:19:14.066Z,50.15
2018-07-27T23:21:41.783Z,50.18
2018-07-27T23:24:09.425Z,50.12
2018-07-27T23:26:37.386Z,50.13
2018-07-27T23:29:05.124Z,50.85
2018-07-27T23:31:32.765Z,50.47
2018-07-27T23:34:00.776Z,51.06
2018-07-27T23:36:28.370Z,51.26
2018-07-27T23:38:55.963Z,50.80
2018-07-27T23:41:24.013Z,51.05
2018-07-27T23:43:51.804Z,51.37
2018-07-27T23:46:19.425Z,51.15
2018-07-27T23:48:47.528Z,51.29
2018-07-27T23:51:15.140Z,51.41
2018-07-27T23:53:42.779Z,51.79
2018-07-27T23:56:10.772Z,51.43
2018-07-27T23:58:38.394Z,52.10
